Time;durP1;ratioP1;P1;durP2;ratioP2;P2;SDS_P1;SDS_P2;PMS_P1;PMS_P2;Temp;Humidity;BMP_temperature;BMP_pressure;BME280_temperature;BME280_humidity;BME280_pressure;Samples;Min_cycle;Max_cycle;Signal;HPM_P1;HPM_P2
2022/06/04 00:00:06;;;;;;;;;;;;;;;;;;4987584;28;129264;-79
2022/06/04 00:02:38;;;;;;;;;;;;;;;;;;4980318;28;106406;-79
2022/06/04 00:05:04;;;;;;;;;;;;;;;;;;4975030;28;129562;-73
2022/06/04 00:07:30;;;;;;;;;;;;;;;;;;4984896;28;106860;-78
2022/06/04 00:15:30;;;;;;;;;;;;;;;;;;4979903;28;105771;-78
2022/06/04 00:17:56;;;;;;;;;;;;;;;;;;4978016;28;113521;-78
2022/06/04 00:20:22;;;;;;;;;;;;;;;;;;4975378;28;126012;-78
2022/06/04 00:22:49;;;;;;;;;;;;;;;;;;4980249;28;135133;-78
2022/06/04 00:25:15;;;;;;;;;;;;;;;;;;4983701;28;107037;-79
2022/06/04 00:27:41;;;;;;;;;;;;;;;;;;4977690;28;129569;-78
2022/06/04 00:30:08;;;;;;;;;;;;;;;;;;4986849;28;129645;-79
2022/06/04 00:32:34;;;;;;;;;;;;;;;;;;4983554;28;129460;-71
2022/06/04 00:35:00;;;;;;;;;;;;;;;;;;4986751;28;112196;-80
2022/06/04 00:37:26;;;;;;;;;;;;;;;;;;4990253;28;133062;-79
2022/06/04 00:39:53;;;;;;;;;;;;;;;;;;4982096;28;118011;-80
2022/06/04 00:42:20;;;;;;;;;;;;;;;;;;4986308;28;122386;-80
2022/06/04 00:44:46;;;;;;;;;;;;;;;;;;4982764;28;133810;-80
2022/06/04 00:47:12;;;;;;;;;;;;;;;;;;4986144;28;127950;-80
2022/06/04 00:49:39;;;;;;;;;;;;;;;;;;4984459;28;130453;-80
2022/06/04 00:52:05;;;;;;;;;;;;;;;;;;4979613;28;106657;-79
2022/06/04 00:54:31;;;;;;;;;;;;;;;;;;4977177;28;116578;-79
2022/06/04 00:56:58;;;;;;;;;;;;;;;;;;4985175;28;121728;-79
2022/06/04 00:59:24;;;;;;;;;;;;;;;;;;4979307;28;128829;-79
2022/06/04 01:01:50;;;;;;;;;;;;;;;;;;4985522;28;117655;-79
2022/06/04 01:04:47;;;;;;;;;;;;;;;;;;4983634;28;118320;-79
2022/06/04 01:07:03;;;;;;;;;;;;;;;;;;4983017;28;112102;-79
2022/06/04 01:09:30;;;;;;;;;;;;;;;;;;4984176;28;129876;-79
2022/06/04 01:12:11;;;;;;;;;;;;;;;;;;4971689;28;120872;-80
2022/06/04 01:14:38;;;;;;;;;;;;;;;;;;4980991;28;123077;-78
2022/06/04 01:17:04;;;;;;;;;;;;;;;;;;4984424;28;123509;-75
2022/06/04 01:19:30;;;;;;;;;;;;;;;;;;4981469;28;124284;-79
2022/06/04 01:21:57;;;;;;;;;;;;;;;;;;4989902;28;108565;-80
2022/06/04 01:24:23;;;;;;;;;;;;;;;;;;4981761;28;107454;-81
2022/06/04 01:26:50;;;;;;;;;;;;;;;;;;4988320;28;106078;-79
2022/06/04 01:29:16;;;;;;;;;;;;;;;;;;4976846;28;134622;-80
2022/06/04 01:31:43;;;;;;;;;;;;;;;;;;4984383;28;117798;-78
2022/06/04 01:34:09;;;;;;;;;;;;;;;;;;4975377;28;116340;-80
2022/06/04 01:36:38;;;;;;;;;;;;;;;;;;4987264;28;108450;-78
2022/06/04 01:39:04;;;;;;;;;;;;;;;;;;4982389;28;122629;-79
2022/06/04 01:41:31;;;;;;;;;;;;;;;;;;4995353;28;109087;-79
2022/06/04 01:43:57;;;;;;;;;;;;;;;;;;4986573;28;116426;-79
2022/06/04 01:46:23;;;;;;;;;;;;;;;;;;4979665;28;125291;-79
2022/06/04 01:48:50;;;;;;;;;;;;;;;;;;4976596;28;106188;-79
2022/06/04 01:51:16;;;;;;;;;;;;;;;;;;4980941;28;132505;-78
2022/06/04 01:53:42;;;;;;;;;;;;;;;;;;4983834;28;129736;-79
2022/06/04 01:56:09;;;;;;;;;;;;;;;;;;4987014;28;106633;-79
2022/06/04 01:58:36;;;;;;;;;;;;;;;;;;4987700;28;115841;-77
2022/06/04 02:01:02;;;;;;;;;;;;;;;;;;4975829;28;129362;-69
2022/06/04 02:03:29;;;;;;;;;;;;;;;;;;4986593;28;122365;-78
2022/06/04 02:05:56;;;;;;;;;;;;;;;;;;4990192;28;107172;-77
2022/06/04 02:08:22;;;;;;;;;;;;;;;;;;4981286;28;126534;-77
2022/06/04 02:10:49;;;;;;;;;;;;;;;;;;4981850;28;114538;-77
2022/06/04 02:13:15;;;;;;;;;;;;;;;;;;4986822;28;112444;-79
2022/06/04 02:15:41;;;;;;;;;;;;;;;;;;4980306;28;125908;-78
2022/06/04 02:18:08;;;;;;;;;;;;;;;;;;4987462;28;131833;-79
2022/06/04 02:20:34;;;;;;;;;;;;;;;;;;4983908;28;114449;-77
2022/06/04 02:23:01;;;;;;;;;;;;;;;;;;4982336;28;106613;-78
2022/06/04 02:25:27;;;;;;;;;;;;;;;;;;4988999;28;136425;-77
2022/06/04 02:27:53;;;;;;;;;;;;;;;;;;4982970;28;134629;-78
2022/06/04 02:30:20;;;;;;;;;;;;;;;;;;4988426;28;107901;-78
2022/06/04 02:32:47;;;;;;;;;;;;;;;;;;4987601;28;106595;-78
2022/06/04 02:35:13;;;;;;;;;;;;;;;;;;4989271;28;106516;-79
2022/06/04 02:37:40;;;;;;;;;;;;;;;;;;4982986;28;136958;-78
2022/06/04 02:40:07;;;;;;;;;;;;;;;;;;4985288;28;106054;-78
2022/06/04 02:42:33;;;;;;;;;;;;;;;;;;4986697;28;107207;-78
2022/06/04 02:45:00;;;;;;;;;;;;;;;;;;4986878;28;133093;-77
2022/06/04 02:47:26;;;;;;;;;;;;;;;;;;4979752;28;107123;-78
2022/06/04 02:49:53;;;;;;;;;;;;;;;;;;4988978;28;124379;-78
2022/06/04 02:52:19;;;;;;;;;;;;;;;;;;4979710;28;128349;-79
2022/06/04 02:54:45;;;;;;;;;;;;;;;;;;4978384;28;137211;-78
2022/06/04 02:57:12;;;;;;;;;;;;;;;;;;4988125;28;120214;-78
2022/06/04 02:59:38;;;;;;;;;;;;;;;;;;4989777;28;107503;-78
2022/06/04 03:02:04;;;;;;;;;;;;;;;;;;4983535;28;128036;-77
2022/06/04 03:04:31;;;;;;;;;;;;;;;;;;4986944;28;112434;-78
2022/06/04 03:06:57;;;;;;;;;;;;;;;;;;4979891;28;118306;-78
2022/06/04 03:09:23;;;;;;;;;;;;;;;;;;4993412;28;106149;-78
2022/06/04 03:11:50;;;;;;;;;;;;;;;;;;4984983;28;130133;-78
2022/06/04 03:14:16;;;;;;;;;;;;;;;;;;4983635;28;118750;-78
2022/06/04 03:16:42;;;;;;;;;;;;;;;;;;4985778;28;133075;-78
2022/06/04 03:19:09;;;;;;;;;;;;;;;;;;4983843;28;126947;-78
2022/06/04 03:21:37;;;;;;;;;;;;;;;;;;4986709;28;119955;-78
2022/06/04 03:24:03;;;;;;;;;;;;;;;;;;4988168;28;109943;-77
2022/06/04 03:26:30;;;;;;;;;;;;;;;;;;4987871;28;123529;-78
2022/06/04 03:28:56;;;;;;;;;;;;;;;;;;4985959;28;108284;-78
2022/06/04 03:31:22;;;;;;;;;;;;;;;;;;4991932;28;132897;-78
2022/06/04 03:33:49;;;;;;;;;;;;;;;;;;4987426;28;135689;-79
2022/06/04 03:36:15;;;;;;;;;;;;;;;;;;4986347;28;136926;-78
2022/06/04 03:38:42;;;;;;;;;;;;;;;;;;4985873;28;124574;-78
2022/06/04 03:41:08;;;;;;;;;;;;;;;;;;4987084;28;130387;-78
2022/06/04 03:43:34;;;;;;;;;;;;;;;;;;4986081;28;127027;-78
2022/06/04 03:46:01;;;;;;;;;;;;;;;;;;4985163;28;128328;-78
2022/06/04 03:48:27;;;;;;;;;;;;;;;;;;4986408;28;128615;-77
2022/06/04 03:50:53;;;;;;;;;;;;;;;;;;4982500;28;129502;-78
2022/06/04 03:53:20;;;;;;;;;;;;;;;;;;4982348;28;123638;-77
2022/06/04 03:55:46;;;;;;;;;;;;;;;;;;4982808;28;132657;-78
2022/06/04 03:58:12;;;;;;;;;;;;;;;;;;4985826;28;111830;-78
2022/06/04 04:00:39;;;;;;;;;;;;;;;;;;4987730;28;128359;-79
2022/06/04 04:03:06;;;;;;;;;;;;;;;;;;4981732;28;133547;-78
2022/06/04 04:05:33;;;;;;;;;;;;;;;;;;4983965;28;120482;-78
2022/06/04 04:07:59;;;;;;;;;;;;;;;;;;4987687;28;136642;-80
2022/06/04 04:10:25;;;;;;;;;;;;;;;;;;4981759;28;137194;-79
2022/06/04 04:12:51;;;;;;;;;;;;;;;;;;4987690;28;129180;-79
2022/06/04 04:15:18;;;;;;;;;;;;;;;;;;4981042;28;132049;-79
2022/06/04 04:17:44;;;;;;;;;;;;;;;;;;4971202;28;115776;-79
2022/06/04 04:20:11;;;;;;;;;;;;;;;;;;4978758;28;116521;-80
2022/06/04 04:22:37;;;;;;;;;;;;;;;;;;4985517;28;128807;-79
2022/06/04 04:25:04;;;;;;;;;;;;;;;;;;4986969;28;115355;-79
2022/06/04 04:27:30;;;;;;;;;;;;;;;;;;4983296;28;131877;-77
2022/06/04 04:29:56;;;;;;;;;;;;;;;;;;4977340;28;127179;-78
2022/06/04 04:32:23;;;;;;;;;;;;;;;;;;4974889;28;129816;-77
2022/06/04 04:34:49;;;;;;;;;;;;;;;;;;4985200;28;130867;-78
2022/06/04 04:37:15;;;;;;;;;;;;;;;;;;4981018;28;127449;-78
2022/06/04 04:39:42;;;;;;;;;;;;;;;;;;4979784;28;114182;-79
2022/06/04 04:42:08;;;;;;;;;;;;;;;;;;4984535;28;131200;-78
2022/06/04 04:44:34;;;;;;;;;;;;;;;;;;4986509;28;106539;-81
2022/06/04 04:47:00;;;;;;;;;;;;;;;;;;4985993;28;134008;-79
2022/06/04 04:49:27;;;;;;;;;;;;;;;;;;4981739;28;130371;-79
2022/06/04 04:51:53;;;;;;;;;;;;;;;;;;4981410;28;112973;-79
2022/06/04 04:54:19;;;;;;;;;;;;;;;;;;4982369;28;131177;-77
2022/06/04 04:56:46;;;;;;;;;;;;;;;;;;4980982;28;131184;-79
2022/06/04 04:59:13;;;;;;;;;;;;;;;;;;4984097;28;132031;-79
2022/06/04 05:01:39;;;;;;;;;;;;;;;;;;4982050;28;133282;-78
2022/06/04 05:04:05;;;;;;;;;;;;;;;;;;4977605;28;128187;-79
2022/06/04 05:06:32;;;;;;;;;;;;;;;;;;4980338;28;107847;-79
2022/06/04 05:08:58;;;;;;;;;;;;;;;;;;4982230;28;120049;-79
2022/06/04 05:11:27;;;;;;;;;;;;;;;;;;4980383;28;106426;-78
2022/06/04 05:13:53;;;;;;;;;;;;;;;;;;4985344;28;116777;-79
2022/06/04 05:16:19;;;;;;;;;;;;;;;;;;4986160;28;109181;-78
2022/06/04 05:18:46;;;;;;;;;;;;;;;;;;4990492;28;106150;-79
2022/06/04 05:21:12;;;;;;;;;;;;;;;;;;4982363;28;138007;-77
2022/06/04 05:23:38;;;;;;;;;;;;;;;;;;4982180;28;110654;-79
2022/06/04 05:26:05;;;;;;;;;;;;;;;;;;4981633;28;123327;-78
2022/06/04 05:28:31;;;;;;;;;;;;;;;;;;4986211;28;131508;-78
2022/06/04 05:30:58;;;;;;;;;;;;;;;;;;4989852;28;108740;-79
2022/06/04 05:33:24;;;;;;;;;;;;;;;;;;4992759;28;118948;-79
2022/06/04 05:35:50;;;;;;;;;;;;;;;;;;4990303;28;108768;-79
2022/06/04 05:38:17;;;;;;;;;;;;;;;;;;4982710;28;127756;-79
2022/06/04 05:40:43;;;;;;;;;;;;;;;;;;4990891;28;134864;-78
2022/06/04 05:43:09;;;;;;;;;;;;;;;;;;4991996;28;111048;-79
2022/06/04 05:45:36;;;;;;;;;;;;;;;;;;4987714;28;123850;-79
2022/06/04 05:48:02;;;;;;;;;;;;;;;;;;4994926;28;121598;-80
2022/06/04 05:50:28;;;;;;;;;;;;;;;;;;4988503;28;128679;-79
2022/06/04 05:52:55;;;;;;;;;;;;;;;;;;4992280;28;136262;-79
2022/06/04 05:55:22;;;;;;;;;;;;;;;;;;4990660;28;106811;-70
2022/06/04 05:57:48;;;;;;;;;;;;;;;;;;4995982;28;129145;-78
2022/06/04 06:00:14;;;;;;;;;;;;;;;;;;4999404;28;132551;-79
2022/06/04 06:02:41;;;;;;;;;;;;;;;;;;5003707;28;119689;-79
2022/06/04 06:05:07;;;;;;;;;;;;;;;;;;4999169;28;123882;-79
2022/06/04 06:07:33;;;;;;;;;;;;;;;;;;5000212;28;106239;-79
2022/06/04 06:10:00;;;;;;;;;;;;;;;;;;5000941;28;111762;-79
2022/06/04 06:12:26;;;;;;;;;;;;;;;;;;4992423;28;124103;-79
2022/06/04 06:14:52;;;;;;;;;;;;;;;;;;4994947;28;120067;-78
2022/06/04 06:17:19;;;;;;;;;;;;;;;;;;4991513;28;109936;-79
2022/06/04 06:19:45;;;;;;;;;;;;;;;;;;4990200;28;107767;-79
2022/06/04 06:22:11;;;;;;;;;;;;;;;;;;4997446;28;135029;-76
2022/06/04 06:24:38;;;;;;;;;;;;;;;;;;4988513;28;126723;-77
2022/06/04 06:27:04;;;;;;;;;;;;;;;;;;4984388;28;110609;-79
2022/06/04 06:29:30;;;;;;;;;;;;;;;;;;4994621;28;109535;-77
2022/06/04 06:31:57;;;;;;;;;;;;;;;;;;4981105;28;136443;-78
2022/06/04 06:34:23;;;;;;;;;;;;;;;;;;4981005;28;124845;-82
2022/06/04 06:36:49;;;;;;;;;;;;;;;;;;4994245;28;122552;-78
2022/06/04 06:39:16;;;;;;;;;;;;;;;;;;4987393;28;119610;-78
2022/06/04 06:41:42;;;;;;;;;;;;;;;;;;4982753;28;136056;-75
2022/06/04 06:44:08;;;;;;;;;;;;;;;;;;4980737;28;129416;-76
2022/06/04 06:46:35;;;;;;;;;;;;;;;;;;4981989;28;126499;-80
2022/06/04 06:49:01;;;;;;;;;;;;;;;;;;4986771;28;106357;-79
2022/06/04 06:51:28;;;;;;;;;;;;;;;;;;4981896;28;121257;-74
2022/06/04 06:53:57;;;;;;;;;;;;;;;;;;4980066;28;117768;-75
2022/06/04 06:56:23;;;;;;;;;;;;;;;;;;4983991;28;112009;-76
2022/06/04 06:58:50;;;;;;;;;;;;;;;;;;4984933;28;107046;-80
2022/06/04 07:01:16;;;;;;;;;;;;;;;;;;4982522;28;108454;-78
2022/06/04 07:03:42;;;;;;;;;;;;;;;;;;4992940;28;106118;-78
2022/06/04 07:06:09;;;;;;;;;;;;;;;;;;4994105;28;106865;-78
2022/06/04 07:08:35;;;;;;;;;;;;;;;;;;4990898;28;119753;-78
2022/06/04 07:11:02;;;;;;;;;;;;;;;;;;4987661;28;129781;-79
2022/06/04 07:13:28;;;;;;;;;;;;;;;;;;4994809;28;135765;-79
2022/06/04 07:15:54;;;;;;;;;;;;;;;;;;4984884;28;123309;-77
2022/06/04 07:18:21;;;;;;;;;;;;;;;;;;4990856;28;108318;-77
2022/06/04 07:20:47;;;;;;;;;;;;;;;;;;4994792;28;106751;-78
2022/06/04 07:23:13;;;;;;;;;;;;;;;;;;4991008;28;129862;-79
2022/06/04 07:25:41;;;;;;;;;;;;;;;;;;4990916;28;135189;-79
2022/06/04 07:28:08;;;;;;;;;;;;;;;;;;4998716;28;119450;-80
2022/06/04 07:30:34;;;;;;;;;;;;;;;;;;4991869;28;136818;-79
2022/06/04 07:33:00;;;;;;;;;;;;;;;;;;4989145;28;114004;-73
2022/06/04 07:35:27;;;;;;;;;;;;;;;;;;4983604;28;111252;-79
2022/06/04 07:37:53;;;;;;;;;;;;;;;;;;4993391;28;106509;-78
2022/06/04 07:40:19;;;;;;;;;;;;;;;;;;4988959;28;128711;-78
2022/06/04 07:42:46;;;;;;;;;;;;;;;;;;4983156;28;127625;-81
2022/06/04 07:45:12;;;;;;;;;;;;;;;;;;4991178;28;128405;-81
2022/06/04 07:47:40;;;;;;;;;;;;;;;;;;4983037;28;132674;-79
2022/06/04 07:50:07;;;;;;;;;;;;;;;;;;4987372;28;121328;-76
2022/06/04 07:52:34;;;;;;;;;;;;;;;;;;4987052;28;122135;-77
2022/06/04 07:55:00;;;;;;;;;;;;;;;;;;4989229;28;116283;-76
2022/06/04 07:57:26;;;;;;;;;;;;;;;;;;4972850;28;115511;-78
2022/06/04 07:59:53;;;;;;;;;;;;;;;;;;4986870;28;108087;-79
2022/06/04 08:02:21;;;;;;;;;;;;;;;;;;4987292;28;111315;-77
2022/06/04 08:04:48;;;;;;;;;;;;;;;;;;4985967;28;115443;-76
2022/06/04 08:07:15;;;;;;;;;;;;;;;;;;4984863;28;129731;-77
2022/06/04 08:09:41;;;;;;;;;;;;;;;;;;4984251;28;113861;-75
2022/06/04 08:12:07;;;;;;;;;;;;;;;;;;4977855;28;127834;-76
2022/06/04 08:14:34;;;;;;;;;;;;;;;;;;4979902;28;129350;-76
2022/06/04 08:17:00;;;;;;;;;;;;;;;;;;4981268;28;120183;-76
2022/06/04 08:19:27;;;;;;;;;;;;;;;;;;4982030;28;129000;-75
2022/06/04 08:21:53;;;;;;;;;;;;;;;;;;4985299;28;124832;-75
2022/06/04 08:24:20;;;;;;;;;;;;;;;;;;4978681;28;121767;-76
2022/06/04 08:26:46;;;;;;;;;;;;;;;;;;4984934;28;118371;-77
2022/06/04 08:29:13;;;;;;;;;;;;;;;;;;4978494;28;106085;-77
2022/06/04 08:31:39;;;;;;;;;;;;;;;;;;4976658;28;133014;-76
2022/06/04 08:34:05;;;;;;;;;;;;;;;;;;4982175;28;129596;-74
2022/06/04 08:36:32;;;;;;;;;;;;;;;;;;4984294;28;127968;-78
2022/06/04 08:38:58;;;;;;;;;;;;;;;;;;4985552;28;109727;-77
2022/06/04 08:41:25;;;;;;;;;;;;;;;;;;4979362;28;112166;-80
2022/06/04 08:43:51;;;;;;;;;;;;;;;;;;4979520;28;105782;-78
2022/06/04 08:46:18;;;;;;;;;;;;;;;;;;4975708;28;137427;-76
2022/06/04 08:48:45;;;;;;;;;;;;;;;;;;4984842;28;121585;-77
2022/06/04 08:51:11;;;;;;;;;;;;;;;;;;4982019;28;124244;-79
2022/06/04 08:53:38;;;;;;;;;;;;;;;;;;4987616;28;137085;-80
2022/06/04 08:58:49;;;;;;;;;;;;;;;;;;4985033;28;128196;-76
2022/06/04 09:01:15;;;;;;;;;;;;;;;;;;4983752;28;122846;-78
2022/06/04 09:03:42;;;;;;;;;;;;;;;;;;4977356;28;135169;-77
2022/06/04 09:06:08;;;;;;;;;;;;;;;;;;4984718;28;134470;-77
2022/06/04 09:08:34;;;;;;;;;;;;;;;;;;4982733;28;114981;-77
2022/06/04 09:11:01;;;;;;;;;;;;;;;;;;4983532;28;106963;-77
2022/06/04 09:13:27;;;;;;;;;;;;;;;;;;4980017;28;131866;-76
2022/06/04 09:15:53;;;;;;;;;;;;;;;;;;4981165;28;125917;-77
2022/06/04 09:18:19;;;;;;;;;;;;;;;;;;4985546;28;106510;-78
2022/06/04 09:20:46;;;;;;;;;;;;;;;;;;4984635;28;109518;-76
2022/06/04 09:23:19;;;;;;;;;;;;;;;;;;4986526;28;107834;-77
2022/06/04 09:25:45;;;;;;;;;;;;;;;;;;4981682;28;122675;-78
2022/06/04 09:28:12;;;;;;;;;;;;;;;;;;4983226;28;128916;-73
2022/06/04 09:30:38;;;;;;;;;;;;;;;;;;4977202;28;124686;-80
2022/06/04 09:33:04;;;;;;;;;;;;;;;;;;4975600;28;140007;-78
2022/06/04 09:35:31;;;;;;;;;;;;;;;;;;4978033;28;118190;-77
2022/06/04 09:37:57;;;;;;;;;;;;;;;;;;4986519;28;136010;-78
2022/06/04 09:40:23;;;;;;;;;;;;;;;;;;4983315;28;111216;-76
2022/06/04 09:42:50;;;;;;;;;;;;;;;;;;4979775;28;123071;-77
2022/06/04 09:45:36;;;;;;;;;;;;;;;;;;4986312;28;106823;-77
2022/06/04 09:48:03;;;;;;;;;;;;;;;;;;4985795;28;113608;-77
2022/06/04 09:50:29;;;;;;;;;;;;;;;;;;4980347;28;125795;-75
2022/06/04 09:52:55;;;;;;;;;;;;;;;;;;4986289;28;117376;-77
2022/06/04 09:55:22;;;;;;;;;;;;;;;;;;4983710;28;115452;-77
2022/06/04 09:57:48;;;;;;;;;;;;;;;;;;4978706;28;135326;-78
2022/06/04 10:00:15;;;;;;;;;;;;;;;;;;4983616;28;106617;-77
2022/06/04 10:02:41;;;;;;;;;;;;;;;;;;4972592;28;133286;-77
2022/06/04 10:05:07;;;;;;;;;;;;;;;;;;4982133;28;113882;-76
2022/06/04 10:07:34;;;;;;;;;;;;;;;;;;4977395;28;115842;-73
2022/06/04 10:10:00;;;;;;;;;;;;;;;;;;4982017;28;126244;-77
2022/06/04 10:15:14;;;;;;;;;;;;;;;;;;4985771;28;120512;-77
2022/06/04 10:17:40;;;;;;;;;;;;;;;;;;4986471;28;107484;-76
2022/06/04 10:20:06;;;;;;;;;;;;;;;;;;4986214;28;112839;-74
2022/06/04 10:22:33;;;;;;;;;;;;;;;;;;4984399;28;126604;-77
2022/06/04 10:24:59;;;;;;;;;;;;;;;;;;4989747;28;124120;-77
2022/06/04 10:27:25;;;;;;;;;;;;;;;;;;4983328;28;126118;-72
2022/06/04 10:29:57;;;;;;;;;;;;;;;;;;4979141;28;110378;-77
2022/06/04 10:32:23;;;;;;;;;;;;;;;;;;4985231;28;132776;-75
2022/06/04 10:35:10;;;;;;;;;;;;;;;;;;4986217;28;106640;-76
2022/06/04 10:37:37;;;;;;;;;;;;;;;;;;4981323;28;121495;-76
2022/06/04 10:40:03;;;;;;;;;;;;;;;;;;4981985;28;129486;-76
2022/06/04 10:42:29;;;;;;;;;;;;;;;;;;4990050;28;109829;-77
2022/06/04 10:44:55;;;;;;;;;;;;;;;;;;4984953;28;123299;-75
2022/06/04 10:47:22;;;;;;;;;;;;;;;;;;4980492;28;106302;-72
2022/06/04 10:49:48;;;;;;;;;;;;;;;;;;4984027;28;134706;-73
2022/06/04 10:52:15;;;;;;;;;;;;;;;;;;4984778;28;109488;-76
2022/06/04 10:54:41;;;;;;;;;;;;;;;;;;4988854;28;129659;-76
2022/06/04 10:57:07;;;;;;;;;;;;;;;;;;4980104;28;122794;-75
2022/06/04 10:59:34;;;;;;;;;;;;;;;;;;4971800;28;122118;-71
2022/06/04 11:02:00;;;;;;;;;;;;;;;;;;4967316;28;112203;-80
2022/06/04 11:04:26;;;;;;;;;;;;;;;;;;4984492;28;128189;-72
2022/06/04 11:06:57;;;;;;;;;;;;;;;;;;4982909;28;125892;-78
2022/06/04 11:09:23;;;;;;;;;;;;;;;;;;4972906;28;111868;-78
2022/06/04 11:11:49;;;;;;;;;;;;;;;;;;4974317;28;134343;-76
2022/06/04 11:14:16;;;;;;;;;;;;;;;;;;4975768;28;108390;-79
2022/06/04 11:16:42;;;;;;;;;;;;;;;;;;4973800;28;137511;-80
2022/06/04 11:19:08;;;;;;;;;;;;;;;;;;4987371;28;113729;-79
2022/06/04 11:21:35;;;;;;;;;;;;;;;;;;4979461;28;119306;-71
2022/06/04 11:24:01;;;;;;;;;;;;;;;;;;4985454;28;125006;-73
2022/06/04 11:26:28;;;;;;;;;;;;;;;;;;4984906;28;134917;-76
2022/06/04 11:28:59;;;;;;;;;;;;;;;;;;4985717;28;123378;-74
2022/06/04 11:31:25;;;;;;;;;;;;;;;;;;4984039;28;119165;-73
2022/06/04 11:33:51;;;;;;;;;;;;;;;;;;4976554;28;119675;-74
2022/06/04 11:36:18;;;;;;;;;;;;;;;;;;4985106;28;128492;-74
2022/06/04 11:38:45;;;;;;;;;;;;;;;;;;4983066;28;130701;-77
2022/06/04 11:41:11;;;;;;;;;;;;;;;;;;4984916;28;112637;-77
2022/06/04 11:43:37;;;;;;;;;;;;;;;;;;4985868;28;120917;-77
2022/06/04 11:46:04;;;;;;;;;;;;;;;;;;4985684;28;130585;-78
2022/06/04 11:48:30;;;;;;;;;;;;;;;;;;4985928;28;118365;-74
2022/06/04 11:50:56;;;;;;;;;;;;;;;;;;4981102;28;128045;-73
2022/06/04 11:53:23;;;;;;;;;;;;;;;;;;4985820;28;119158;-73
2022/06/04 11:55:49;;;;;;;;;;;;;;;;;;4985641;28;113641;-74
2022/06/04 11:58:15;;;;;;;;;;;;;;;;;;4988310;28;130229;-75
2022/06/04 12:00:42;;;;;;;;;;;;;;;;;;4982875;28;129622;-74
2022/06/04 12:03:08;;;;;;;;;;;;;;;;;;4985836;28;136970;-80
2022/06/04 12:05:35;;;;;;;;;;;;;;;;;;4986855;28;132403;-79
2022/06/04 12:08:04;;;;;;;;;;;;;;;;;;4984893;28;107479;-76
2022/06/04 12:10:30;;;;;;;;;;;;;;;;;;4979446;28;138003;-75
2022/06/04 12:12:56;;;;;;;;;;;;;;;;;;4977168;28;124252;-75
2022/06/04 12:15:23;;;;;;;;;;;;;;;;;;4985736;28;131880;-76
2022/06/04 12:17:49;;;;;;;;;;;;;;;;;;4984966;28;134187;-75
2022/06/04 12:25:46;;;;;;;;;;;;;;;;;;4978473;28;138722;-70
2022/06/04 12:28:12;;;;;;;;;;;;;;;;;;4979504;28;124561;-68
2022/06/04 12:30:38;;;;;;;;;;;;;;;;;;4979450;28;108817;-69
2022/06/04 12:33:05;;;;;;;;;;;;;;;;;;4978245;28;106450;-69
2022/06/04 12:35:31;;;;;;;;;;;;;;;;;;4983257;28;129472;-68
2022/06/04 12:37:58;;;;;;;;;;;;;;;;;;4979633;28;136650;-68
2022/06/04 12:40:24;;;;;;;;;;;;;;;;;;4985627;28;130585;-69
2022/06/04 12:42:51;;;;;;;;;;;;;;;;;;4976261;28;134583;-71
2022/06/04 12:45:17;;;;;;;;;;;;;;;;;;4985621;28;108683;-70
2022/06/04 12:47:43;;;;;;;;;;;;;;;;;;4982963;28;117799;-69
2022/06/04 12:50:10;;;;;;;;;;;;;;;;;;4980183;28;136785;-70
2022/06/04 12:52:36;;;;;;;;;;;;;;;;;;4980242;28;119594;-71
2022/06/04 12:55:03;;;;;;;;;;;;;;;;;;4974447;28;124534;-70
2022/06/04 12:57:32;;;;;;;;;;;;;;;;;;4975693;28;107635;-70
2022/06/04 12:59:58;;;;;;;;;;;;;;;;;;4983487;28;128905;-71
2022/06/04 13:02:25;;;;;;;;;;;;;;;;;;4979950;28;107659;-70
2022/06/04 13:04:51;;;;;;;;;;;;;;;;;;4983205;28;136395;-70
2022/06/04 13:07:17;;;;;;;;;;;;;;;;;;4977515;28;117004;-70
2022/06/04 13:09:44;;;;;;;;;;;;;;;;;;4983213;28;123658;-70
2022/06/04 13:12:10;;;;;;;;;;;;;;;;;;4977376;28;121988;-70
2022/06/04 13:14:36;;;;;;;;;;;;;;;;;;4982553;28;128468;-73
2022/06/04 13:17:02;;;;;;;;;;;;;;;;;;4976540;28;136353;-72
2022/06/04 13:19:29;;;;;;;;;;;;;;;;;;4973955;28;108724;-72
2022/06/04 13:21:55;;;;;;;;;;;;;;;;;;4984713;28;114757;-71
2022/06/04 13:24:21;;;;;;;;;;;;;;;;;;4981819;28;132083;-73
2022/06/04 13:26:48;;;;;;;;;;;;;;;;;;4978860;28;114432;-72
2022/06/04 13:29:14;;;;;;;;;;;;;;;;;;4982940;28;121362;-70
2022/06/04 13:31:40;;;;;;;;;;;;;;;;;;4981904;28;123085;-70
2022/06/04 13:34:07;;;;;;;;;;;;;;;;;;4977257;28;129916;-69
2022/06/04 13:36:33;;;;;;;;;;;;;;;;;;4987847;28;137100;-70
2022/06/04 13:38:59;;;;;;;;;;;;;;;;;;4974061;28;123489;-72
2022/06/04 13:44:10;;;;;;;;;;;;;;;;;;4983371;28;130405;-70
2022/06/04 13:46:37;;;;;;;;;;;;;;;;;;4977687;28;107736;-69
2022/06/04 13:49:03;;;;;;;;;;;;;;;;;;4983267;28;137282;-70
2022/06/04 13:51:29;;;;;;;;;;;;;;;;;;4984707;28;120755;-69
2022/06/04 13:53:56;;;;;;;;;;;;;;;;;;4980484;28;120617;-70
2022/06/04 13:56:23;;;;;;;;;;;;;;;;;;4987640;28;136217;-69
2022/06/04 13:58:49;;;;;;;;;;;;;;;;;;4988579;28;135820;-70
2022/06/04 14:01:16;;;;;;;;;;;;;;;;;;4980064;28;135442;-70
2022/06/04 14:03:42;;;;;;;;;;;;;;;;;;4983933;28;138083;-70
2022/06/04 14:06:14;;;;;;;;;;;;;;;;;;4975946;28;128993;-70
2022/06/04 14:08:40;;;;;;;;;;;;;;;;;;4975862;28;127711;-70
2022/06/04 14:11:06;;;;;;;;;;;;;;;;;;4986945;28;130350;-70
2022/06/04 14:13:33;;;;;;;;;;;;;;;;;;4981434;28;117427;-69
2022/06/04 14:15:59;;;;;;;;;;;;;;;;;;4983628;28;109257;-70
2022/06/04 14:18:26;;;;;;;;;;;;;;;;;;4983179;28;109647;-70
2022/06/04 14:20:52;;;;;;;;;;;;;;;;;;4978414;28;107335;-69
2022/06/04 14:23:18;;;;;;;;;;;;;;;;;;4979619;28;136005;-69
2022/06/04 14:25:45;;;;;;;;;;;;;;;;;;4992244;27;125855;-70
2022/06/04 14:28:11;;;;;;;;;;;;;;;;;;4978949;28;131492;-72
2022/06/04 14:30:37;;;;;;;;;;;;;;;;;;4975484;28;118672;-69
2022/06/04 14:33:03;;;;;;;;;;;;;;;;;;4986911;28;107363;-70
2022/06/04 14:35:32;;;;;;;;;;;;;;;;;;4979745;28;136166;-70
2022/06/04 14:37:58;;;;;;;;;;;;;;;;;;4984568;28;118433;-71
2022/06/04 14:40:25;;;;;;;;;;;;;;;;;;4984536;28;115158;-70
2022/06/04 14:42:51;;;;;;;;;;;;;;;;;;4980934;28;132501;-72
2022/06/04 14:45:19;;;;;;;;;;;;;;;;;;4972548;28;128430;-72
2022/06/04 14:47:45;;;;;;;;;;;;;;;;;;4976826;28;137792;-71
2022/06/04 14:50:11;;;;;;;;;;;;;;;;;;4980538;28;131325;-72
2022/06/04 14:52:38;;;;;;;;;;;;;;;;;;4972476;27;125109;-71
2022/06/04 14:55:06;;;;;;;;;;;;;;;;;;4978619;28;108077;-75
2022/06/04 14:57:53;;;;;;;;;;;;;;;;;;4984967;28;107500;-77
2022/06/04 15:02:46;;;;;;;;;;;;;;;;;;4984636;28;109094;-77
2022/06/04 15:05:13;;;;;;;;;;;;;;;;;;4981044;28;116678;-75
2022/06/04 15:07:39;;;;;;;;;;;;;;;;;;4982481;27;126685;-75
2022/06/04 15:10:06;;;;;;;;;;;;;;;;;;4983880;28;130243;-75
2022/06/04 15:12:32;;;;;;;;;;;;;;;;;;4981533;28;131045;-75
2022/06/04 15:14:58;;;;;;;;;;;;;;;;;;4981634;28;126823;-81
2022/06/04 15:17:25;;;;;;;;;;;;;;;;;;4978061;28;130490;-76
2022/06/04 15:19:51;;;;;;;;;;;;;;;;;;4971479;28;107230;-80
2022/06/04 15:22:17;;;;;;;;;;;;;;;;;;4971260;28;107683;-72
2022/06/04 15:24:44;;;;;;;;;;;;;;;;;;4982093;28;135099;-76
2022/06/04 15:27:10;;;;;;;;;;;;;;;;;;4972609;27;107491;-76
2022/06/04 15:35:07;;;;;;;;;;;;;;;;;;4977633;28;108220;-76
2022/06/04 15:37:33;;;;;;;;;;;;;;;;;;4996505;27;138484;-75
2022/06/04 15:39:59;;;;;;;;;;;;;;;;;;4986552;28;113941;-75
2022/06/04 15:42:26;;;;;;;;;;;;;;;;;;4983216;28;123868;-76
2022/06/04 15:44:52;;;;;;;;;;;;;;;;;;4983095;28;108345;-74
2022/06/04 15:47:18;;;;;;;;;;;;;;;;;;4978711;28;118803;-76
2022/06/04 15:55:24;;;;;;;;;;;;;;;;;;4980783;28;107716;-83
2022/06/04 15:57:50;;;;;;;;;;;;;;;;;;4975398;27;136659;-74
2022/06/04 16:00:17;;;;;;;;;;;;;;;;;;4982361;28;115682;-75
2022/06/04 16:02:43;;;;;;;;;;;;;;;;;;4978446;28;132058;-76
2022/06/04 16:05:09;;;;;;;;;;;;;;;;;;4984119;28;108424;-72
2022/06/04 16:07:36;;;;;;;;;;;;;;;;;;4980901;28;108325;-73
2022/06/04 16:10:02;;;;;;;;;;;;;;;;;;4988671;28;134727;-72
2022/06/04 16:12:34;;;;;;;;;;;;;;;;;;4972140;28;120494;-72
2022/06/04 16:15:00;;;;;;;;;;;;;;;;;;4980457;28;134289;-72
2022/06/04 16:17:27;;;;;;;;;;;;;;;;;;4977282;28;137241;-73
2022/06/04 16:19:53;;;;;;;;;;;;;;;;;;4981375;28;124569;-72
2022/06/04 16:22:19;;;;;;;;;;;;;;;;;;4980432;27;128988;-73
2022/06/04 16:24:46;;;;;;;;;;;;;;;;;;4974813;28;117822;-73
2022/06/04 16:27:13;;;;;;;;;;;;;;;;;;4978500;28;128944;-74
2022/06/04 16:29:40;;;;;;;;;;;;;;;;;;4977876;28;107732;-74
2022/06/04 16:32:06;;;;;;;;;;;;;;;;;;4980884;28;133211;-74
2022/06/04 16:34:32;;;;;;;;;;;;;;;;;;4972493;28;137723;-73
2022/06/04 16:36:59;;;;;;;;;;;;;;;;;;4981443;28;113532;-73
2022/06/04 16:39:25;;;;;;;;;;;;;;;;;;4977744;28;129453;-75
2022/06/04 16:41:54;;;;;;;;;;;;;;;;;;4975046;28;114993;-74
2022/06/04 16:44:21;;;;;;;;;;;;;;;;;;4973034;28;119595;-69
2022/06/04 16:46:47;;;;;;;;;;;;;;;;;;4982117;28;109003;-74
2022/06/04 16:51:59;;;;;;;;;;;;;;;;;;4984604;28;139349;-73
2022/06/04 16:54:25;;;;;;;;;;;;;;;;;;4978832;28;123681;-74
2022/06/04 16:56:52;;;;;;;;;;;;;;;;;;4981457;28;125341;-77
2022/06/04 16:59:18;;;;;;;;;;;;;;;;;;4980571;28;127803;-75